In Rescue
 
Open Full Screen Window  High Contrast Mode
Wind Gusting 00 knots
05
July 14, 2020 12:54 AM EDT
Weather Information
Wind Direction
  040 °
Wind Speed
  05 kt (6 mph)
Wind Gust
  00 kt (0 mph)
Altimeter
30.04 in
Visibility
10 SM
Temperature
20° C
68° F
Dewpoint
14° C
57° F
Humidity
69%
Sky Condition
Clear
VFR

METAR KVLL 140454Z AUTO 04005KT 10SM CLR 20/14 A3004 RMK AO2 T01950142

FAA Disclaimer: The data displayed is for advisory purposes only and is not to be used for flight planning or operations.